Observations for AMSTERDAM SCHIPHOL, Netherlands (EHAM)

EHAM 201955Z 20007KT CAVOK 06/03 Q1023 NOSIG
EHAM 201925Z 21008KT CAVOK 08/04 Q1022 NOSIG
EHAM 201855Z 20010KT CAVOK 08/04 Q1022 NOSIG
EHAM 201825Z 20009KT CAVOK 09/04 Q1022 NOSIG
EHAM 201755Z 22010KT CAVOK 09/03 Q1022 NOSIG
EHAM 201725Z 22010KT CAVOK 09/03 Q1022 NOSIG
EHAM 201655Z 22011KT CAVOK 10/02 Q1022 NOSIG
EHAM 201625Z 23013KT 200V260 CAVOK 10/02 Q1022 NOSIG
EHAM 201555Z 24014KT 210V270 CAVOK 11/02 Q1022 NOSIG
EHAM 201525Z 23016KT 9999 FEW032 11/03 Q1022 NOSIG  
EHAM 201455Z 24017KT 9999 FEW032 11/03 Q1021 NOSIG  
EHAM 201425Z 24017KT 210V270 9999 FEW032 12/02 Q1021 NOSIG  
EHAM 201355Z 23015KT 200V260 9999 FEW030 12/04 Q1021 NOSIG  
EHAM 201325Z 24016KT 210V270 9999 FEW030 12/04 Q1021 NOSIG  
EHAM 201255Z 24014KT 9999 FEW028 12/04 Q1021 NOSIG  
EHAM 201225Z 24016KT 9999 FEW027 11/04 Q1021 NOSIG  
EHAM 201155Z 23014KT 200V260 9999 FEW027 11/05 Q1021 NOSIG  
EHAM 201125Z 22016KT 9999 FEW025 10/05 Q1021 NOSIG  
EHAM 201055Z 22013KT 190V260 9999 FEW045 10/05 Q1021 NOSIG  
EHAM 201025Z 21012KT CAVOK 09/05 Q1021 NOSIG
EHAM 200955Z 21012KT CAVOK 09/05 Q1021 NOSIG
EHAM 200925Z 20012KT 9999 FEW045 07/05 Q1021 NOSIG  
EHAM 200855Z 20011KT 9999 SCT045 07/05 Q1021 NOSIG  
EHAM 200825Z 21011KT CAVOK 07/05 Q1021 NOSIG
EHAM 200755Z 20010KT CAVOK 06/04 Q1020 NOSIG
EHAM 200725Z 21010KT CAVOK 05/04 Q1020 NOSIG
EHAM 200655Z 20009KT CAVOK 05/04 Q1020 NOSIG
EHAM 200625Z 20010KT CAVOK 05/04 Q1019 NOSIG
EHAM 200555Z 20010KT 9999 FEW009 05/04 Q1019 NOSIG  
EHAM 200525Z 20009KT 9999 FEW009 05/04 Q1019 NOSIG  
EHAM 200455Z 20007KT 170V230 9999 FEW009 06/05 Q1019 NOSIG  
EHAM 200425Z 22009KT 9999 FEW007 05/04 Q1019 NOSIG  
EHAM 200355Z 22009KT 200V260 9999 FEW007 06/05 Q1019 NOSIG  
EHAM 200325Z 23011KT 9999 SCT007 07/05 Q1019 NOSIG  
EHAM 200255Z 23010KT 200V260 9999 SCT009 07/06 Q1019 NOSIG  
EHAM 200225Z 23010KT 200V260 9999 FEW007 07/06 Q1019 NOSIG  
EHAM 200155Z 23011KT 9999 FEW008 07/06 Q1019 NOSIG  
EHAM 200125Z 23012KT 9999 FEW008 07/06 Q1019 NOSIG  
EHAM 200055Z 23012KT 200V260 9999 FEW008 07/06 Q1019 NOSIG  
EHAM 200025Z 23011KT 200V260 9999 FEW008 07/06 Q1019 NOSIG  
EHAM 192355Z 23011KT 9999 FEW008 07/05 Q1019 NOSIG  
EHAM 192325Z 23011KT 200V260 9999 FEW008 07/05 Q1019 NOSIG  
EHAM 192255Z 23010KT 9999 FEW008 07/05 Q1019 NOSIG  
EHAM 192225Z 22011KT 9999 FEW007 07/05 Q1019 NOSIG  
EHAM 192155Z 23012KT 200V260 9999 FEW007 07/05 Q1019 NOSIG  
EHAM 192125Z 23011KT 9999 FEW009 07/05 Q1019 NOSIG  
EHAM 192055Z 23010KT 200V260 9999 FEW010 07/05 Q1019 NOSIG  
EHAM 192025Z 22011KT CAVOK 07/05 Q1019 NOSIG
EHAM 191955Z 23011KT CAVOK 07/05 Q1019 NOSIG
EHAM 191925Z 23011KT CAVOK 07/05 Q1019 NOSIG